Time;durP1;ratioP1;P1;durP2;ratioP2;P2;SDS_P1;SDS_P2;PMS_P1;PMS_P2;Temp;Humidity;BMP_temperature;BMP_pressure;BME280_temperature;BME280_humidity;BME280_pressure;Samples;Min_cycle;Max_cycle;Signal;HPM_P1;HPM_P2
2022/07/08 00:01:34;;;;;;;11.05;7.43;;;;;;;22.62;66.18;99520.53;5091281;28;20036;-37
2022/07/08 00:04:00;;;;;;;8.93;8.02;;;;;;;22.70;66.23;99521.78;5091195;28;20028;-37
2022/07/08 00:06:25;;;;;;;9.75;7.88;;;;;;;23.09;64.89;99528.91;5091344;28;20084;-37
2022/07/08 00:08:51;;;;;;;9.07;7.93;;;;;;;22.58;67.19;99511.31;5091089;28;20336;-37
2022/07/08 00:11:16;;;;;;;10.68;7.82;;;;;;;22.51;67.59;99525.25;5091297;28;20107;-37
2022/07/08 00:13:42;;;;;;;10.10;7.72;;;;;;;22.63;66.97;99522.13;5090981;28;20028;-37
2022/07/08 00:16:07;;;;;;;9.70;7.65;;;;;;;22.68;67.05;99527.50;5091175;28;20092;-37
2022/07/08 00:18:33;;;;;;;8.55;7.75;;;;;;;23.42;63.77;99536.06;5090655;28;20057;-37
2022/07/08 00:20:58;;;;;;;9.23;8.10;;;;;;;22.96;65.06;99530.41;5090782;28;20390;-36
2022/07/08 00:23:23;;;;;;;9.82;7.93;;;;;;;22.78;65.40;99529.28;5090832;28;20020;-37
2022/07/08 00:25:49;;;;;;;8.00;7.20;;;;;;;22.86;64.76;99531.34;5091060;28;20082;-37
2022/07/08 00:28:14;;;;;;;8.18;7.30;;;;;;;22.73;64.90;99527.44;5090611;28;20028;-37
2022/07/08 00:30:40;;;;;;;7.80;7.00;;;;;;;23.43;62.62;99532.22;5091138;28;20020;-37
2022/07/08 00:33:05;;;;;;;8.32;7.53;;;;;;;22.87;65.55;99532.97;5090833;28;20046;-37
2022/07/08 00:35:31;;;;;;;35.25;29.83;;;;;;;22.81;65.50;99524.09;5090555;28;20016;-37
2022/07/08 00:37:56;;;;;;;36.13;31.88;;;;;;;22.79;66.14;99520.84;5090748;28;20027;-37
2022/07/08 00:40:22;;;;;;;8.88;7.45;;;;;;;22.82;64.86;99517.53;5090356;28;20019;-37
2022/07/08 00:42:48;;;;;;;8.38;6.32;;;;;;;23.53;61.06;99516.88;5090544;28;20081;-37
2022/07/08 00:45:15;;;;;;;8.18;5.88;;;;;;;22.79;63.65;99506.47;5090642;28;20065;-36
2022/07/08 00:47:41;;;;;;;6.90;6.00;;;;;;;22.60;64.33;99503.75;5090347;28;20142;-37
2022/07/08 00:50:09;;;;;;;6.63;5.80;;;;;;;22.70;63.81;99495.47;5090010;28;20047;-38
2022/07/08 00:52:35;;;;;;;6.95;6.25;;;;;;;22.80;65.51;99513.53;5090532;28;20094;-37
2022/07/08 00:55:01;;;;;;;7.40;6.28;;;;;;;23.55;62.76;99509.25;5090492;28;20028;-38
2022/07/08 00:57:27;;;;;;;7.00;6.32;;;;;;;22.98;64.97;99501.91;5090347;28;20394;-37
2022/07/08 00:59:54;;;;;;;7.65;6.30;;;;;;;22.83;65.23;99507.53;5078716;28;20034;-37
2022/07/08 01:02:19;;;;;;;7.80;6.20;;;;;;;22.71;66.13;99498.97;5069760;28;20029;-38
2022/07/08 01:04:45;;;;;;;8.10;6.10;;;;;;;22.94;64.50;99505.47;5069762;28;20040;-38
2022/07/08 01:07:10;;;;;;;6.70;6.00;;;;;;;23.50;63.12;99512.06;5070402;28;20035;-38
2022/07/08 01:09:36;;;;;;;7.13;6.20;;;;;;;23.27;63.53;99517.28;5070125;28;20054;-38
2022/07/08 01:12:01;;;;;;;9.40;6.18;;;;;;;22.95;64.67;99513.31;5069652;28;20017;-37
2022/07/08 01:14:27;;;;;;;8.25;6.03;;;;;;;22.88;64.36;99509.34;5070008;28;20050;-37
2022/07/08 01:16:52;;;;;;;15.30;6.18;;;;;;;22.94;65.26;99508.19;5069686;28;20036;-37
2022/07/08 01:19:18;;;;;;;7.28;6.00;;;;;;;23.40;63.66;99505.69;5070019;28;20518;-38
2022/07/08 01:21:44;;;;;;;9.45;6.70;;;;;;;23.27;64.71;99501.00;5069634;28;20020;-38
2022/07/08 01:24:09;;;;;;;7.15;6.45;;;;;;;22.78;67.04;99500.25;5069557;28;20082;-38
2022/07/08 01:26:35;;;;;;;7.68;6.82;;;;;;;22.88;66.79;99495.78;5069834;28;20104;-38
2022/07/08 01:29:00;;;;;;;8.75;7.07;;;;;;;22.96;66.54;99493.25;5069991;28;20082;-38
2022/07/08 01:31:26;;;;;;;8.02;7.22;;;;;;;23.23;66.14;99494.53;5069850;28;20009;-37
2022/07/08 01:33:51;;;;;;;10.23;7.90;;;;;;;23.58;64.99;99495.91;5069541;28;20096;-38
2022/07/08 01:36:17;;;;;;;8.02;7.22;;;;;;;23.11;67.61;99503.09;5070259;28;20028;-37
2022/07/08 01:38:42;;;;;;;9.15;8.25;;;;;;;22.92;68.41;99499.53;5069853;28;20020;-37
2022/07/08 01:41:08;;;;;;;10.05;8.40;;;;;;;22.92;69.20;99502.25;5069781;28;20023;-37
2022/07/08 01:43:34;;;;;;;11.85;9.65;;;;;;;22.90;68.25;99507.97;5069327;28;20449;-37
2022/07/08 01:45:59;;;;;;;11.38;10.05;;;;;;;23.30;66.59;99513.16;5069586;28;20104;-37
2022/07/08 01:48:24;;;;;;;11.02;9.85;;;;;;;22.67;69.03;99506.88;5069715;28;20028;-38
2022/07/08 01:50:50;;;;;;;10.45;9.10;;;;;;;22.49;69.99;99505.75;5069833;28;20107;-37
2022/07/08 01:53:15;;;;;;;12.63;9.88;;;;;;;22.51;70.04;99508.97;5069343;28;20041;-38
2022/07/08 01:55:41;;;;;;;10.65;9.55;;;;;;;22.58;70.07;99508.63;5069473;28;20131;-38
2022/07/08 01:58:06;;;;;;;13.32;9.43;;;;;;;23.03;68.25;99512.69;5069645;28;20475;-38
2022/07/08 02:00:32;;;;;;;10.35;9.20;;;;;;;22.80;68.95;99505.38;5069479;28;20030;-38
2022/07/08 02:02:57;;;;;;;11.18;9.35;;;;;;;22.60;69.96;99520.00;5070924;28;20519;-38
2022/07/08 02:05:23;;;;;;;11.75;9.27;;;;;;;22.68;70.28;99510.44;5073031;28;20029;-37
2022/07/08 02:07:48;;;;;;;11.50;9.40;;;;;;;22.71;70.58;99512.53;5073334;28;20085;-37
2022/07/08 02:10:14;;;;;;;12.57;9.57;;;;;;;22.92;69.39;99519.31;5073172;28;20106;-38
2022/07/08 02:12:39;;;;;;;11.65;10.18;;;;;;;22.80;70.29;99517.03;5073235;28;20024;-38
2022/07/08 02:15:08;;;;;;;12.52;10.18;;;;;;;22.69;70.54;99518.25;5072587;28;20035;-38
2022/07/08 02:17:40;;;;;;;12.20;10.57;;;;;;;22.64;71.33;99524.56;5071677;28;20115;-38
2022/07/08 02:20:09;;;;;;;11.93;10.25;;;;;;;22.82;70.70;99520.25;5073205;28;20032;-38
2022/07/08 02:22:34;;;;;;;12.10;10.53;;;;;;;23.05;69.00;99514.31;5072908;28;20020;-38
2022/07/08 02:25:00;;;;;;;12.75;10.85;;;;;;;23.17;68.30;99520.13;5072670;28;20025;-38
2022/07/08 02:27:25;;;;;;;15.60;10.77;;;;;;;23.01;69.14;99523.00;5072801;28;20461;-38
2022/07/08 02:29:51;;;;;;;14.70;11.05;;;;;;;22.89;69.32;99527.25;5072980;28;20020;-37
2022/07/08 02:32:16;;;;;;;12.60;11.00;;;;;;;22.88;69.43;99518.28;5072937;28;20013;-38
2022/07/08 02:34:42;;;;;;;13.50;10.82;;;;;;;23.03;68.95;99528.97;5072694;28;20028;-38
2022/07/08 02:37:08;;;;;;;13.13;11.50;;;;;;;23.11;68.63;99534.88;5072583;28;20048;-38
2022/07/08 02:39:34;;;;;;;13.35;11.20;;;;;;;22.84;69.63;99544.38;5072762;28;20071;-37
2022/07/08 02:42:00;;;;;;;13.50;10.68;;;;;;;22.61;70.38;99535.16;5072639;28;20032;-37
2022/07/08 02:44:25;;;;;;;12.57;10.52;;;;;;;22.77;69.87;99541.22;5072402;28;20029;-38
2022/07/08 02:46:50;;;;;;;11.43;10.23;;;;;;;22.93;69.07;99548.09;5072274;28;20111;-37
2022/07/08 02:49:16;;;;;;;12.63;10.52;;;;;;;23.65;65.83;99549.06;5071070;28;20040;-38
2022/07/08 02:51:41;;;;;;;15.13;11.57;;;;;;;23.06;68.01;99543.88;5072555;28;20023;-38
2022/07/08 02:54:07;;;;;;;13.95;10.63;;;;;;;22.72;69.21;99538.56;5072435;28;20373;-37
2022/07/08 02:56:33;;;;;;;15.77;11.50;;;;;;;22.66;69.52;99548.69;5072292;28;20055;-37
2022/07/08 02:58:59;;;;;;;13.27;11.07;;;;;;;22.82;69.07;99543.88;5071918;28;20052;-38
2022/07/08 03:01:25;;;;;;;13.98;10.77;;;;;;;23.31;66.96;99550.88;5072215;28;20020;-38
2022/07/08 03:03:50;;;;;;;12.95;11.48;;;;;;;23.30;66.67;99556.59;5072357;28;20130;-37
2022/07/08 03:06:16;;;;;;;25.70;21.23;;;;;;;22.93;68.14;99548.09;5072070;28;20439;-36
2022/07/08 03:08:42;;;;;;;16.50;13.90;;;;;;;22.71;68.79;99545.09;5071961;28;20021;-37
2022/07/08 03:11:08;;;;;;;16.38;12.38;;;;;;;22.63;69.19;99550.03;5072024;28;20017;-37
2022/07/08 03:13:35;;;;;;;13.63;11.00;;;;;;;22.88;68.20;99558.97;5071486;28;20032;-35
2022/07/08 03:16:01;;;;;;;15.75;13.23;;;;;;;23.27;66.36;99568.06;5071936;28;20040;-37
2022/07/08 03:18:26;;;;;;;11.95;9.80;;;;;;;22.68;68.46;99561.94;5072158;28;20035;-38
2022/07/08 03:20:52;;;;;;;12.35;10.25;;;;;;;22.45;69.75;99559.72;5071626;28;20031;-38
2022/07/08 03:23:17;;;;;;;11.32;9.40;;;;;;;22.64;68.95;99567.94;5072051;28;20033;-37
2022/07/08 03:25:43;;;;;;;12.70;9.68;;;;;;;22.54;69.68;99567.22;5072256;28;20085;-37
2022/07/08 03:28:08;;;;;;;12.40;10.18;;;;;;;23.05;67.16;99565.88;5072238;28;20035;-44
2022/07/08 03:30:34;;;;;;;12.32;10.05;;;;;;;22.81;67.81;99562.06;5071840;28;20527;-43
2022/07/08 03:32:59;;;;;;;11.77;9.30;;;;;;;22.58;68.82;99558.25;5070279;28;20024;-47
2022/07/08 03:35:25;;;;;;;11.95;9.40;;;;;;;22.58;68.96;99563.69;5071446;28;20157;-44
2022/07/08 03:37:50;;;;;;;9.98;8.93;;;;;;;22.88;67.73;99558.97;5071644;28;20488;-44
2022/07/08 03:43:00;;;;;;;11.77;8.95;;;;;;;23.21;65.64;99559.97;5071488;28;20035;-43
2022/07/08 03:45:26;;;;;;;11.55;8.88;;;;;;;23.09;66.55;99553.34;5071377;28;20104;-43
2022/07/08 03:47:51;;;;;;;9.60;8.60;;;;;;;23.30;66.16;99562.81;5071259;28;20448;-43
2022/07/08 03:50:18;;;;;;;17.33;13.52;;;;;;;23.59;64.10;99564.63;5071182;28;20071;-46
2022/07/08 03:52:47;;;;;;;14.82;12.65;;;;;;;24.05;62.77;99561.19;5070976;28;20150;-44
2022/07/08 03:55:12;;;;;;;13.70;10.43;;;;;;;24.57;61.16;99563.84;5071167;28;20047;-45
2022/07/08 03:57:38;;;;;;;11.52;8.95;;;;;;;24.14;61.53;99569.47;5071222;28;20449;-43
2022/07/08 04:00:07;;;;;;;11.57;8.82;;;;;;;24.19;62.31;99561.22;5083907;28;20106;-45
2022/07/08 04:02:32;;;;;;;10.13;8.35;;;;;;;24.45;61.22;99561.59;5089840;28;20035;-45
2022/07/08 04:04:57;;;;;;;9.85;8.15;;;;;;;24.76;59.77;99563.75;5091164;28;20024;-44
2022/07/08 04:07:23;;;;;;;10.63;8.13;;;;;;;25.54;57.89;99561.84;5091329;28;20101;-44
2022/07/08 04:09:48;;;;;;;11.88;8.35;;;;;;;25.37;57.51;99558.97;5090624;28;20068;-42
2022/07/08 04:12:14;;;;;;;9.23;7.90;;;;;;;25.15;58.42;99565.94;5090297;28;20344;-42
2022/07/08 04:14:39;;;;;;;10.77;7.93;;;;;;;25.42;57.90;99560.75;5088596;28;20023;-44
2022/07/08 04:17:05;;;;;;;9.68;8.05;;;;;;;25.82;56.00;99552.78;5089770;28;20028;-43
2022/07/08 04:19:30;;;;;;;8.43;7.47;;;;;;;26.69;53.14;99556.84;5088879;28;20019;-42
2022/07/08 04:21:56;;;;;;;10.63;8.07;;;;;;;26.60;53.70;99560.63;5090867;28;20448;-43
2022/07/08 04:24:21;;;;;;;10.30;7.80;;;;;;;26.23;55.09;99565.41;5090208;28;20052;-43
2022/07/08 04:26:47;;;;;;;10.40;7.40;;;;;;;26.39;54.65;99563.06;5089846;28;20028;-42
2022/07/08 04:29:12;;;;;;;11.15;7.18;;;;;;;26.61;53.53;99557.59;5090901;28;20401;-42
2022/07/08 04:31:37;;;;;;;9.95;7.25;;;;;;;27.07;52.20;99559.03;5090612;28;20063;-42
2022/07/08 04:34:03;;;;;;;12.32;7.30;;;;;;;26.88;52.47;99562.03;5088868;28;20020;-43
2022/07/08 04:36:28;;;;;;;11.55;7.28;;;;;;;26.51;53.39;99566.03;5088826;28;20019;-42
2022/07/08 04:38:54;;;;;;;11.65;7.05;;;;;;;26.29;53.77;99559.53;5087833;28;20471;-42
2022/07/08 04:41:19;;;;;;;8.00;7.20;;;;;;;26.33;53.58;99557.78;5087353;28;20028;-42
2022/07/08 04:43:45;;;;;;;7.93;6.35;;;;;;;26.81;51.99;99567.16;5086896;28;20250;-42
2022/07/08 04:46:11;;;;;;;8.20;7.35;;;;;;;26.63;52.46;99562.75;5087148;28;20088;-43
2022/07/08 04:48:37;;;;;;;10.38;8.55;;;;;;;26.23;54.11;99574.38;5087047;28;20499;-43
2022/07/08 04:51:03;;;;;;;9.85;7.53;;;;;;;26.00;54.13;99559.19;5087821;28;20115;-41
2022/07/08 04:53:28;;;;;;;13.00;7.32;;;;;;;25.80;54.22;99563.97;5088802;28;20385;-42
2022/07/08 04:55:54;;;;;;;10.07;7.13;;;;;;;25.77;54.99;99578.22;5089919;28;20455;-43
2022/07/08 04:58:19;;;;;;;8.90;7.30;;;;;;;26.66;52.25;99570.31;5090123;28;20030;-43
2022/07/08 05:00:45;;;;;;;9.85;7.30;;;;;;;25.83;54.51;99571.53;5090083;28;20024;-43
2022/07/08 05:03:10;;;;;;;8.27;7.25;;;;;;;25.65;55.85;99565.16;5090355;28;20024;-44
2022/07/08 05:05:36;;;;;;;8.13;6.97;;;;;;;25.70;55.07;99562.31;5089846;28;20031;-43
2022/07/08 05:08:02;;;;;;;12.50;7.47;;;;;;;25.77;54.46;99558.34;5090058;28;20086;-43
2022/07/08 05:10:28;;;;;;;12.10;7.70;;;;;;;26.41;53.12;99563.59;5090115;28;20483;-42
2022/07/08 05:12:55;;;;;;;13.23;7.88;;;;;;;26.28;52.50;99568.00;5089976;28;20055;-45
2022/07/08 05:15:21;;;;;;;9.60;7.47;;;;;;;26.14;53.97;99566.16;5089810;28;20047;-45
2022/07/08 05:17:47;;;;;;;14.70;8.05;;;;;;;26.44;53.43;99568.41;5090633;28;20047;-43
2022/07/08 05:20:13;;;;;;;10.60;7.35;;;;;;;27.17;51.79;99568.84;5089943;28;20020;-41
2022/07/08 05:22:39;;;;;;;11.45;8.02;;;;;;;27.87;49.93;99575.19;5089494;28;20085;-44
2022/07/08 05:25:06;;;;;;;9.55;7.72;;;;;;;28.70;47.75;99580.66;5089470;28;20020;-45
2022/07/08 05:27:32;;;;;;;9.63;7.68;;;;;;;28.57;47.59;99585.22;5090252;28;20057;-46
2022/07/08 05:29:57;;;;;;;8.52;7.63;;;;;;;28.64;46.90;99580.84;5089705;28;20024;-47
2022/07/08 05:32:23;;;;;;;9.50;7.70;;;;;;;28.95;46.37;99579.72;5090022;28;20134;-45
2022/07/08 05:34:48;;;;;;;7.88;7.10;;;;;;;29.62;45.01;99582.69;5089594;28;20108;-44
2022/07/08 05:37:14;;;;;;;8.20;7.30;;;;;;;30.29;43.43;99583.53;5090052;28;20016;-44
2022/07/08 05:39:41;;;;;;;9.13;7.32;;;;;;;29.98;43.96;99578.53;5093754;28;20016;-42
2022/07/08 05:42:10;;;;;;;12.88;7.25;;;;;;;30.02;44.10;99582.19;5093866;28;20016;-46
2022/07/08 05:44:37;;;;;;;8.45;7.07;;;;;;;30.29;43.55;99580.81;5093621;28;20024;-51
2022/07/08 05:47:07;;;;;;;8.25;6.90;;;;;;;30.92;41.37;99579.75;5093742;28;20519;-42
2022/07/08 05:49:33;;;;;;;11.13;7.65;;;;;;;30.54;42.25;99584.41;5093102;28;20169;-44
2022/07/08 05:51:58;;;;;;;8.88;7.22;;;;;;;30.63;42.41;99587.03;5093799;28;20103;-43
2022/07/08 05:54:24;;;;;;;11.32;7.22;;;;;;;30.71;42.06;99591.63;5093628;28;20016;-43
2022/07/08 05:56:49;;;;;;;10.57;6.97;;;;;;;31.08;40.59;99552.38;5093990;28;20122;-49
2022/07/08 05:59:15;;;;;;;8.77;7.43;;;;;;;30.62;42.13;99595.63;5093286;28;20016;-45
2022/07/08 06:01:40;;;;;;;13.85;7.18;;;;;;;30.47;42.71;99580.63;5093699;28;20023;-43
2022/07/08 06:04:06;;;;;;;10.75;7.15;;;;;;;30.63;42.47;99598.00;5093439;28;20081;-44
2022/07/08 06:06:31;;;;;;;10.10;6.90;;;;;;;31.17;41.17;99597.81;5093053;28;20345;-46
2022/07/08 06:08:57;;;;;;;9.32;6.63;;;;;;;31.23;41.32;99592.09;5093092;28;20020;-43
2022/07/08 06:11:22;;;;;;;7.93;6.90;;;;;;;31.51;40.08;99582.00;5093243;28;20030;-44
2022/07/08 06:13:48;;;;;;;9.93;6.65;;;;;;;31.64;39.73;99595.69;5092952;28;20462;-42
2022/07/08 06:16:13;;;;;;;7.88;6.75;;;;;;;31.99;39.69;99595.09;5093479;28;20484;-44
2022/07/08 06:18:39;;;;;;;7.85;6.57;;;;;;;32.15;39.53;99594.00;5092965;28;20028;-43
2022/07/08 06:21:04;;;;;;;8.13;6.63;;;;;;;32.25;38.93;99594.63;5092583;28;20031;-44
2022/07/08 06:23:31;;;;;;;8.38;6.90;;;;;;;32.36;38.79;99590.22;5092967;28;20024;-43
2022/07/08 06:25:57;;;;;;;7.05;6.30;;;;;;;32.98;38.10;99590.59;5093184;28;20016;-44
2022/07/08 06:28:23;;;;;;;7.05;6.43;;;;;;;33.15;37.08;99588.63;5093246;28;20085;-45
2022/07/08 06:30:49;;;;;;;6.80;6.20;;;;;;;33.20;37.24;99580.88;5092985;28;20280;-43
2022/07/08 06:33:14;;;;;;;7.60;6.05;;;;;;;33.59;36.33;99588.41;5092481;28;20081;-44
2022/07/08 06:35:40;;;;;;;6.93;6.07;;;;;;;33.81;35.91;99579.41;5092739;28;20348;-43
2022/07/08 06:38:05;;;;;;;7.75;6.75;;;;;;;34.33;34.55;99579.19;5092830;28;20114;-44
2022/07/08 06:40:31;;;;;;;6.95;6.25;;;;;;;34.13;35.78;99581.97;5092923;28;20034;-45
2022/07/08 06:42:56;;;;;;;7.72;6.00;;;;;;;33.68;36.01;99580.72;5092643;28;20385;-43
2022/07/08 06:45:22;;;;;;;6.90;5.63;;;;;;;34.26;34.76;99575.16;5092484;28;20386;-47
2022/07/08 06:47:47;;;;;;;6.60;6.00;;;;;;;34.87;33.04;99567.09;5092792;28;20074;-44
2022/07/08 06:50:12;;;;;;;7.72;5.95;;;;;;;34.22;34.90;99568.78;5092354;28;20056;-46
2022/07/08 06:52:38;;;;;;;7.82;6.07;;;;;;;34.15;34.58;99565.84;5092431;28;20020;-45
2022/07/08 06:55:04;;;;;;;7.20;6.50;;;;;;;33.77;35.50;99575.00;5092514;28;20556;-44
2022/07/08 06:57:30;;;;;;;6.68;5.68;;;;;;;34.83;33.53;99569.00;5092437;28;20049;-51
2022/07/08 06:59:56;;;;;;;6.95;5.63;;;;;;;34.03;34.24;99561.31;5092151;28;20025;-44
2022/07/08 07:02:22;;;;;;;7.35;6.40;;;;;;;33.71;35.89;99560.69;5092373;28;20024;-48
2022/07/08 07:04:47;;;;;;;8.20;6.70;;;;;;;33.77;35.48;99555.69;5091728;28;20035;-43
2022/07/08 07:07:13;;;;;;;7.97;5.95;;;;;;;35.05;33.73;99554.34;5092410;28;20508;-46
2022/07/08 07:09:38;;;;;;;7.70;6.80;;;;;;;34.74;33.60;99546.38;5092085;28;20024;-44
2022/07/08 07:12:08;;;;;;;8.23;6.63;;;;;;;34.51;35.18;99557.41;5092095;28;20514;-44
2022/07/08 07:14:34;;;;;;;7.20;6.50;;;;;;;34.62;34.14;99564.72;5091879;28;20016;-47
2022/07/08 07:17:00;;;;;;;7.18;6.38;;;;;;;35.68;32.33;99557.56;5092197;28;20024;-47
2022/07/08 07:19:26;;;;;;;9.18;6.53;;;;;;;35.16;33.86;99557.22;5091843;28;20055;-46
2022/07/08 07:21:52;;;;;;;7.63;6.90;;;;;;;34.69;34.48;99558.53;5091749;28;20207;-43
2022/07/08 07:24:17;;;;;;;7.00;6.30;;;;;;;34.51;34.85;99549.13;5091236;28;20488;-45
2022/07/08 07:26:43;;;;;;;6.65;6.03;;;;;;;35.14;34.02;99545.75;5091808;28;20050;-45
2022/07/08 07:29:09;;;;;;;7.32;6.30;;;;;;;34.77;34.30;99546.44;5091674;28;20027;-45
2022/07/08 07:31:34;;;;;;;8.75;6.10;;;;;;;34.24;34.82;99543.56;5091667;28;20072;-46
2022/07/08 07:34:00;;;;;;;7.05;6.30;;;;;;;33.93;35.08;99548.13;5091556;28;20078;-43
2022/07/08 07:36:26;;;;;;;6.72;5.90;;;;;;;34.53;34.06;99542.06;5091218;28;20050;-45
2022/07/08 07:38:52;;;;;;;7.43;6.55;;;;;;;34.25;34.57;99537.69;5091452;28;20031;-46
2022/07/08 07:41:17;;;;;;;10.68;7.68;;;;;;;34.24;33.68;99527.00;5091714;28;20047;-45
2022/07/08 07:43:43;;;;;;;7.38;6.70;;;;;;;34.07;34.88;99531.78;5090986;28;20097;-45
2022/07/08 07:46:08;;;;;;;7.45;6.70;;;;;;;34.47;35.10;99536.06;5091194;28;20034;-44
2022/07/08 07:48:34;;;;;;;7.95;7.15;;;;;;;34.52;34.71;99539.66;5091525;28;20415;-43
2022/07/08 07:50:59;;;;;;;9.18;6.43;;;;;;;34.40;34.58;99533.16;5091177;28;20032;-44
2022/07/08 07:53:26;;;;;;;8.57;6.35;;;;;;;34.71;34.39;99539.63;5091196;28;20491;-44
2022/07/08 07:55:51;;;;;;;7.55;6.78;;;;;;;34.61;34.62;99534.69;5091029;28;20130;-44
2022/07/08 07:58:17;;;;;;;7.40;6.57;;;;;;;35.38;32.94;99539.00;5091158;28;20502;-45
2022/07/08 08:00:42;;;;;;;8.45;6.40;;;;;;;34.70;34.24;99532.50;5090667;28;20032;-45
2022/07/08 08:03:08;;;;;;;6.63;5.90;;;;;;;34.03;34.25;99528.19;5090836;28;20035;-44
2022/07/08 08:05:33;;;;;;;7.88;6.32;;;;;;;33.91;34.58;99524.78;5090793;28;20374;-45
2022/07/08 08:07:59;;;;;;;6.75;6.10;;;;;;;34.43;33.53;99524.16;5090832;28;20028;-47
2022/07/08 08:10:24;;;;;;;7.07;6.38;;;;;;;33.41;34.98;99525.38;5090820;28;20411;-44
2022/07/08 08:12:50;;;;;;;7.03;6.43;;;;;;;32.93;36.07;99533.78;5091129;28;20095;-43
2022/07/08 08:15:15;;;;;;;7.45;6.75;;;;;;;32.75;36.42;99523.50;5090795;28;20110;-46
2022/07/08 08:17:41;;;;;;;7.82;6.50;;;;;;;33.77;35.36;99526.13;5090748;28;20031;-43
2022/07/08 08:20:09;;;;;;;7.65;6.60;;;;;;;33.55;35.59;99513.88;5091168;28;20028;-45
2022/07/08 08:22:35;;;;;;;7.15;6.45;;;;;;;33.64;35.87;99511.72;5090909;28;20024;-43
2022/07/08 08:25:01;;;;;;;11.05;7.10;;;;;;;33.77;35.59;99519.81;5090800;28;20067;-44
2022/07/08 08:27:26;;;;;;;9.88;6.60;;;;;;;34.20;34.63;99506.81;5090641;28;20070;-43
2022/07/08 08:29:52;;;;;;;7.40;6.57;;;;;;;33.90;33.68;99510.19;5090139;28;20377;-43
2022/07/08 08:32:17;;;;;;;7.30;6.60;;;;;;;32.96;34.56;99506.66;5090380;28;20394;-45
2022/07/08 08:34:42;;;;;;;8.45;6.60;;;;;;;32.60;35.69;99500.38;5090667;28;20028;-47
2022/07/08 08:37:08;;;;;;;7.35;6.65;;;;;;;32.60;35.86;99511.38;5090575;28;20444;-43
2022/07/08 08:39:33;;;;;;;7.68;6.45;;;;;;;32.78;35.23;99501.56;5090303;28;20040;-46
2022/07/08 08:41:59;;;;;;;7.55;6.85;;;;;;;32.46;35.85;99500.78;5090162;28;20385;-44
2022/07/08 08:44:26;;;;;;;7.70;6.95;;;;;;;32.15;36.97;99497.69;5090200;28;20027;-44
2022/07/08 08:46:53;;;;;;;7.95;7.15;;;;;;;32.20;36.97;99506.84;5090095;28;20077;-44
2022/07/08 08:49:20;;;;;;;9.70;6.97;;;;;;;32.48;36.68;99503.97;5089918;28;20087;-43
2022/07/08 08:51:50;;;;;;;7.93;7.13;;;;;;;32.95;35.92;99494.06;5090097;28;20073;-43
2022/07/08 08:54:18;;;;;;;7.00;6.30;;;;;;;32.75;36.67;99495.97;5090031;28;20054;-44
2022/07/08 08:56:47;;;;;;;7.97;6.47;;;;;;;33.03;36.72;99499.34;5090074;28;20505;-45
2022/07/08 08:59:15;;;;;;;9.63;7.45;;;;;;;33.58;35.31;99481.97;5083799;28;20024;-46
2022/07/08 09:01:41;;;;;;;9.35;6.80;;;;;;;33.01;37.42;99498.13;5069408;28;20067;-46
2022/07/08 09:04:10;;;;;;;7.20;6.50;;;;;;;33.19;35.60;99490.28;5069526;28;20032;-46
2022/07/08 09:06:36;;;;;;;;;;;;;;;32.61;35.52;99477.97;5069974;28;20087;-44
2022/07/08 09:09:03;;;;;;;8.00;6.60;;;;;;;32.25;35.93;99487.28;5069372;28;20381;-46
2022/07/08 09:11:28;;;;;;;7.28;5.95;;;;;;;32.10;36.89;99481.44;5068988;28;20401;-43
2022/07/08 09:14:16;;;;;;;6.63;5.65;;;;;;;32.25;36.44;99476.28;5068997;28;20043;-43
2022/07/08 09:17:09;;;;;;;7.28;6.00;;;;;;;32.91;35.50;99471.94;5069494;28;20078;-43
2022/07/08 09:19:36;;;;;;;5.90;5.35;;;;;;;32.06;36.42;99479.75;5069398;28;20025;-43
2022/07/08 09:22:02;;;;;;;6.20;5.60;;;;;;;32.10;36.23;99475.13;5069634;28;20039;-43
2022/07/08 09:24:30;;;;;;;7.78;5.63;;;;;;;32.25;36.19;99477.09;5069463;28;20020;-44
2022/07/08 09:26:58;;;;;;;6.80;6.10;;;;;;;31.15;37.06;99472.94;5069501;28;20503;-45
2022/07/08 09:29:24;;;;;;;6.45;5.85;;;;;;;31.25;37.06;99466.94;5069374;28;20081;-44
2022/07/08 09:31:49;;;;;;;7.07;6.38;;;;;;;31.36;37.47;99473.53;5069506;28;20111;-43
2022/07/08 09:34:20;;;;;;;6.82;6.22;;;;;;;31.32;37.21;99467.13;5069176;28;20034;-44
2022/07/08 09:36:49;;;;;;;7.45;5.70;;;;;;;31.74;37.05;99460.44;5069390;28;20070;-46
2022/07/08 09:39:25;;;;;;;6.22;4.97;;;;;;;32.09;35.12;99462.53;5069667;28;20035;-45
2022/07/08 09:41:51;;;;;;;5.47;4.80;;;;;;;32.25;36.31;99448.75;5069798;28;20557;-44
2022/07/08 09:44:19;;;;;;;5.22;4.55;;;;;;;32.18;35.55;99451.34;5069184;28;20115;-43
2022/07/08 09:46:46;;;;;;;6.47;5.20;;;;;;;32.25;35.55;99449.59;5069555;28;20031;-44
2022/07/08 09:49:27;;;;;;;5.65;5.00;;;;;;;32.21;35.25;99456.94;5069468;28;20121;-44
2022/07/08 09:51:53;;;;;;;5.95;4.90;;;;;;;32.41;34.70;99451.50;5069333;28;20032;-44
2022/07/08 09:54:20;;;;;;;5.50;4.40;;;;;;;32.38;34.10;99452.22;5068819;28;20027;-45
2022/07/08 09:57:03;;;;;;;5.28;4.68;;;;;;;32.37;35.51;99448.69;5069137;28;20365;-45
2022/07/08 09:59:30;;;;;;;5.43;4.68;;;;;;;32.95;33.47;99452.72;5069310;28;20085;-43
2022/07/08 10:01:57;;;;;;;5.05;4.55;;;;;;;32.49;34.10;99436.75;5069238;28;20025;-44
2022/07/08 10:04:24;;;;;;;6.43;4.80;;;;;;;32.19;35.44;99428.19;5068980;28;20025;-46
2022/07/08 10:06:54;;;;;;;6.03;4.35;;;;;;;32.72;34.91;99423.91;5068962;28;20043;-45
2022/07/08 10:09:22;;;;;;;5.53;5.03;;;;;;;32.28;35.07;99434.28;5069198;28;20032;-45
2022/07/08 10:11:48;;;;;;;4.85;4.45;;;;;;;32.19;34.71;99428.97;5069674;28;20047;-52
2022/07/08 10:14:15;;;;;;;5.35;4.85;;;;;;;31.55;36.06;99423.41;5069083;28;20032;-43
2022/07/08 10:16:41;;;;;;;5.95;4.15;;;;;;;31.34;35.47;99418.13;5069034;28;20025;-44
2022/07/08 10:19:16;;;;;;;7.82;4.50;;;;;;;32.10;34.85;99414.59;5068956;28;20028;-46
2022/07/08 10:21:46;;;;;;;5.00;4.60;;;;;;;31.29;36.91;99412.84;5069114;28;20190;-46
2022/07/08 10:24:20;;;;;;;5.80;4.57;;;;;;;31.96;34.63;99395.75;5071168;28;20056;-48
2022/07/08 10:26:46;;;;;;;6.68;4.50;;;;;;;32.26;35.12;99411.84;5071238;28;20024;-44
2022/07/08 10:29:12;;;;;;;5.85;4.47;;;;;;;31.69;35.53;99406.47;5072962;28;20029;-44
2022/07/08 10:31:52;;;;;;;7.57;4.78;;;;;;;31.86;36.10;99397.09;5072955;28;20022;-45
2022/07/08 10:34:28;;;;;;;8.23;4.75;;;;;;;31.74;36.45;99391.69;5072485;28;20396;-44
2022/07/08 10:36:54;;;;;;;4.97;4.20;;;;;;;32.29;35.92;99389.91;5072420;28;20107;-47
2022/07/08 10:39:40;;;;;;;5.35;4.40;;;;;;;32.70;33.97;99376.66;5072673;28;20101;-48
2022/07/08 10:42:07;;;;;;;4.97;4.55;;;;;;;32.24;34.37;99383.88;5072658;28;20025;-45
2022/07/08 10:44:42;;;;;;;4.60;4.20;;;;;;;31.82;34.60;99381.66;5072094;28;20443;-44
2022/07/08 10:47:09;;;;;;;4.57;4.18;;;;;;;31.87;35.56;99379.44;5071766;28;20024;-44
2022/07/08 10:49:42;;;;;;;4.60;4.20;;;;;;;32.59;34.46;99380.34;5072316;28;20048;-43
2022/07/08 10:52:08;;;;;;;4.72;4.10;;;;;;;32.51;33.12;99369.13;5072426;28;20016;-43
2022/07/08 10:54:37;;;;;;;6.28;4.13;;;;;;;31.91;33.59;99374.00;5071731;28;20504;-44
2022/07/08 10:57:07;;;;;;;5.63;4.45;;;;;;;32.06;34.40;99361.44;5072339;28;20491;-47
2022/07/08 10:59:38;;;;;;;4.65;4.13;;;;;;;32.11;34.21;99358.41;5071683;28;20484;-43
2022/07/08 11:02:16;;;;;;;5.85;4.10;;;;;;;32.15;33.53;99356.53;5072008;28;20467;-44
2022/07/08 11:04:51;;;;;;;4.28;3.72;;;;;;;32.40;33.02;99350.78;5071847;28;20036;-45
2022/07/08 11:07:17;;;;;;;5.13;3.97;;;;;;;32.01;33.92;99364.44;5071956;28;20028;-45
2022/07/08 11:09:44;;;;;;;5.70;3.80;;;;;;;31.84;34.35;99354.59;5071656;28;20089;-43
2022/07/08 11:12:14;;;;;;;5.20;3.70;;;;;;;31.89;34.06;99357.06;5071916;28;20040;-44
2022/07/08 11:14:44;;;;;;;5.32;3.80;;;;;;;31.60;34.61;99345.34;5071637;28;20362;-45
2022/07/08 11:17:19;;;;;;;4.20;3.80;;;;;;;31.07;35.46;99330.97;5071783;28;20043;-45
2022/07/08 11:19:45;;;;;;;4.60;3.90;;;;;;;31.51;34.55;99353.81;5071205;28;20024;-42
2022/07/08 11:22:11;;;;;;;4.53;3.83;;;;;;;31.59;34.14;99342.97;5072279;28;20024;-43
2022/07/08 11:24:38;;;;;;;5.40;4.07;;;;;;;31.56;33.68;99337.00;5071568;28;20082;-47
2022/07/08 11:27:04;;;;;;;4.32;3.60;;;;;;;31.48;33.81;99337.22;5071922;28;20115;-45
2022/07/08 11:29:30;;;;;;;6.45;3.80;;;;;;;31.42;34.34;99333.88;5071728;28;20024;-44